Time;durP1;ratioP1;P1;durP2;ratioP2;P2;SDS_P1;SDS_P2;PMS_P1;PMS_P2;Temp;Humidity;BMP_temperature;BMP_pressure;BME280_temperature;BME280_humidity;BME280_pressure;Samples;Min_cycle;Max_cycle;Signal;HPM_P1;HPM_P2
2022/12/24 00:01:38;;;;;;;19.95;10.98;;;17.00;70.20;;;17.93;38.77;97707.97;5068507;28;20056;-70
2022/12/24 00:04:04;;;;;;;15.23;10.50;;;17.00;70.10;;;17.90;38.91;97707.88;5072480;28;20039;-70
2022/12/24 00:06:31;;;;;;;13.68;10.10;;;17.00;70.00;;;18.00;39.25;97699.94;5072576;28;20041;-70
2022/12/24 00:08:57;;;;;;;14.68;10.68;;;17.00;70.60;;;17.98;39.48;97693.22;5069388;28;20056;-70
2022/12/24 00:11:23;;;;;;;18.60;11.55;;;17.00;70.70;;;17.94;39.20;97695.88;5069831;28;20125;-70
2022/12/24 00:13:49;;;;;;;18.48;10.55;;;17.00;70.30;;;17.97;38.80;97686.13;5071952;28;20053;-70
2022/12/24 00:16:16;;;;;;;17.60;11.98;;;17.00;70.30;;;17.92;38.89;97684.44;5056332;28;20033;-70
2022/12/24 00:18:42;;;;;;;17.50;11.18;;;17.00;70.00;;;17.97;38.82;97688.88;5049628;28;20044;-70
2022/12/24 00:21:08;;;;;;;16.23;10.52;;;17.00;69.80;;;17.93;39.34;97679.75;5067073;28;20046;-70
2022/12/24 00:23:34;;;;;;;15.15;10.90;;;17.00;70.40;;;17.92;39.10;97676.19;5036614;28;20486;-70
2022/12/24 00:26:00;;;;;;;17.10;11.20;;;17.00;70.70;;;17.94;39.28;97667.63;5070001;28;20044;-70
2022/12/24 00:28:27;;;;;;;17.95;11.85;;;16.90;70.70;;;17.92;38.94;97665.22;5038933;28;20054;-70
2022/12/24 00:30:52;;;;;;;18.33;11.18;;;17.00;70.10;;;17.89;38.79;97668.69;5037087;28;20041;-70
2022/12/24 00:33:20;;;;;;;15.63;10.32;;;17.00;70.00;;;17.92;38.68;97665.22;5070996;28;20043;-70
2022/12/24 00:35:49;;;;;;;16.33;10.70;;;17.00;70.00;;;17.90;38.92;97664.78;5069295;28;20056;-70
2022/12/24 00:38:18;;;;;;;18.98;10.70;;;17.00;69.80;;;17.92;39.45;97667.19;5051806;28;20044;-70
2022/12/24 00:40:44;;;;;;;15.80;10.52;;;17.00;70.50;;;17.94;39.27;97659.41;5072130;28;20039;-70
2022/12/24 00:43:10;;;;;;;18.58;10.90;;;17.00;70.60;;;17.95;39.17;97655.50;5072796;28;20040;-70
2022/12/24 00:45:36;;;;;;;16.20;10.10;;;17.00;70.50;;;17.87;38.97;97651.75;5055591;28;20045;-70
2022/12/24 00:48:02;;;;;;;21.10;11.55;;;16.90;70.00;;;17.93;38.76;97646.81;5054720;28;20044;-70
2022/12/24 00:50:28;;;;;;;19.98;12.82;;;16.90;70.10;;;17.91;38.83;97646.38;5053584;28;20048;-70
2022/12/24 00:52:54;;;;;;;17.77;11.60;;;17.00;69.90;;;17.87;39.21;97643.53;5073109;28;20385;-70
2022/12/24 00:55:20;;;;;;;14.13;9.80;;;16.90;70.00;;;17.92;39.18;97639.75;5053999;28;20055;-70
2022/12/24 00:57:47;;;;;;;14.65;10.20;;;17.00;70.60;;;17.93;39.23;97642.13;5066853;28;20044;-70
2022/12/24 01:00:14;;;;;;;20.58;10.95;;;16.90;70.60;;;17.91;39.07;97638.94;5068545;28;20102;-70
2022/12/24 01:02:41;;;;;;;14.35;10.90;;;17.00;70.20;;;17.89;38.70;97633.00;5069610;28;20053;-71
2022/12/24 01:05:09;;;;;;;15.07;10.85;;;17.00;70.90;;;17.91;38.90;97624.41;5052849;28;20044;-71
2022/12/24 01:07:37;;;;;;;14.73;10.93;;;16.90;70.00;;;17.92;38.88;97615.84;5056783;28;20124;-71
2022/12/24 01:10:04;;;;;;;15.20;10.52;;;16.90;69.80;;;17.96;38.98;97608.53;5070313;28;20053;-70
2022/12/24 01:12:33;;;;;;;17.17;10.35;;;16.90;70.40;;;17.96;39.02;97611.25;5069740;28;20044;-70
2022/12/24 01:14:59;;;;;;;13.45;9.32;;;17.00;70.70;;;17.96;38.96;97608.53;5051941;28;20052;-70
2022/12/24 01:17:25;;;;;;;20.42;11.52;;;16.90;70.60;;;18.06;38.71;97600.91;5071132;28;20040;-70
2022/12/24 01:19:51;;;;;;;17.20;11.07;;;16.90;70.40;;;18.09;38.55;97594.72;5055884;28;20046;-71
2022/12/24 01:22:17;;;;;;;16.98;11.60;;;16.90;70.20;;;18.08;38.36;97596.66;5051945;28;20033;-71
2022/12/24 01:24:43;;;;;;;19.05;11.43;;;16.90;70.20;;;18.08;38.52;97609.59;5056592;28;20460;-71
2022/12/24 01:27:12;;;;;;;20.92;11.05;;;16.90;70.20;;;18.07;39.22;97606.06;5037249;28;20040;-71
2022/12/24 01:29:38;;;;;;;20.23;11.57;;;16.90;70.90;;;18.05;39.19;97607.56;5050463;28;21215;-71
2022/12/24 01:32:04;;;;;;;15.88;11.20;;;16.90;71.00;;;18.09;38.82;97611.16;5044148;28;20372;-71
2022/12/24 01:34:31;;;;;;;16.67;9.75;;;16.90;70.60;;;18.19;38.68;97605.16;5070098;28;20048;-71
2022/12/24 01:36:58;;;;;;;15.52;10.73;;;16.90;70.50;;;18.19;38.60;97605.16;5054636;28;20059;-71
2022/12/24 01:39:24;;;;;;;19.10;11.75;;;17.00;70.30;;;18.19;38.59;97603.25;5048586;28;20040;-71
2022/12/24 01:44:37;;;;;;;14.95;11.48;;;17.00;70.50;;;18.23;38.78;97611.56;5069299;28;20154;-71
2022/12/24 01:47:28;;;;;;;14.57;10.60;;;16.90;70.80;;;18.21;38.62;97616.59;5055076;28;20066;-71
2022/12/24 01:50:03;;;;;;;14.13;10.93;;;16.90;70.80;;;18.23;38.60;97608.81;5037060;28;20427;-71
2022/12/24 01:52:33;;;;;;;15.35;10.65;;;16.90;70.70;;;18.28;38.45;97611.28;5018876;28;20090;-71
2022/12/24 01:55:19;;;;;;;17.30;11.60;;;17.00;70.50;;;18.30;38.52;97617.22;5019337;28;20041;-71
2022/12/24 01:57:52;;;;;;;17.10;11.32;;;17.00;70.30;;;18.33;38.37;97600.06;5048454;28;20044;-71
2022/12/24 02:00:18;;;;;;;17.30;11.80;;;17.00;70.60;;;18.30;38.71;97603.50;5054952;28;20044;-71
2022/12/24 02:02:46;;;;;;;18.92;11.15;;;16.90;70.90;;;18.33;38.68;97619.25;5070262;28;20090;-71
2022/12/24 02:05:26;;;;;;;19.02;11.40;;;17.00;71.00;;;18.35;38.47;97613.44;5042985;28;20040;-71
2022/12/24 02:07:52;;;;;;;20.10;11.48;;;17.00;70.70;;;18.37;38.27;97617.41;5067342;28;20048;-71
2022/12/24 02:10:18;;;;;;;15.13;11.35;;;17.00;70.40;;;18.40;38.24;97605.72;5050838;28;20051;-71
2022/12/24 02:12:44;;;;;;;19.83;12.30;;;17.00;70.30;;;18.42;38.23;97608.13;5033213;28;20468;-71
2022/12/24 02:15:13;;;;;;;16.67;11.77;;;17.00;70.50;;;18.43;38.21;97604.22;5020139;28;20040;-71
2022/12/24 02:17:51;;;;;;;22.35;12.27;;;16.90;70.80;;;18.39;38.46;97593.16;5015666;28;20041;-71
2022/12/24 02:20:42;;;;;;;18.38;12.35;;;17.00;71.10;;;18.46;38.20;97592.53;5049235;28;20388;-71
2022/12/24 02:23:43;;;;;;;15.80;10.30;;;17.00;70.80;;;18.50;38.17;97595.38;5052871;28;20479;-71
2022/12/24 02:26:41;;;;;;;18.60;13.05;;;17.00;70.70;;;18.53;38.09;97597.41;5034333;28;20049;-71
2022/12/24 02:30:01;;;;;;;18.98;12.18;;;17.10;70.60;;;18.48;38.34;97581.97;5054981;28;20056;-71
2022/12/24 02:32:53;;;;;;;14.50;10.75;;;17.10;70.70;;;18.54;38.39;97597.03;4974910;28;20043;-71
2022/12/24 02:36:03;;;;;;;19.05;11.60;;;17.10;71.00;;;18.55;38.15;97584.13;5053549;28;20349;-71
2022/12/24 02:38:38;;;;;;;18.98;11.75;;;17.10;70.90;;;18.56;38.28;97580.22;5034895;28;20044;-71
2022/12/24 02:41:26;;;;;;;19.88;12.85;;;17.10;70.60;;;18.57;38.21;97579.03;5019351;28;20048;-71
2022/12/24 02:43:53;;;;;;;18.13;12.35;;;17.10;70.50;;;18.59;38.13;97582.22;5035334;28;20040;-71
2022/12/24 02:46:25;;;;;;;17.30;11.75;;;17.10;70.50;;;18.62;38.04;97582.34;5051600;28;20469;-71
2022/12/24 02:48:51;;;;;;;18.63;11.60;;;17.20;70.80;;;18.62;38.41;97589.75;5018711;28;20056;-71
2022/12/24 02:51:22;;;;;;;15.57;11.07;;;17.10;70.90;;;18.63;38.38;97585.88;5016027;28;20040;-71
2022/12/24 02:53:48;;;;;;;16.30;11.43;;;17.10;71.00;;;18.62;38.18;97587.00;5055308;28;20657;-70
2022/12/24 02:57:02;;;;;;;18.40;12.15;;;17.20;70.80;;;18.66;38.06;97590.66;5067949;28;20045;-70
2022/12/24 03:00:07;;;;;;;16.80;10.93;;;17.20;70.60;;;18.64;38.04;97581.97;5057002;28;20169;-70
2022/12/24 03:02:51;;;;;;;17.95;12.40;;;17.20;70.50;;;18.64;38.35;97590.19;5062210;28;20080;-71
2022/12/24 03:05:45;;;;;;;19.77;11.98;;;17.20;70.80;;;18.59;38.31;97591.25;5070508;28;20040;-71
2022/12/24 03:08:32;;;;;;;16.88;11.85;;;17.20;71.10;;;18.67;38.26;97586.75;5051892;28;20051;-71
2022/12/24 03:11:14;;;;;;;15.10;11.43;;;17.20;70.90;;;18.69;38.30;97598.16;5051895;28;20476;-70
2022/12/24 03:13:41;;;;;;;15.98;11.52;;;17.20;70.70;;;18.71;38.02;97593.13;5032440;28;20542;-70
2022/12/24 03:16:12;;;;;;;18.95;11.98;;;17.40;70.50;;;18.70;38.15;97594.28;5014941;28;20046;-71
2022/12/24 03:18:40;;;;;;;19.67;12.35;;;17.30;70.30;;;18.72;38.30;97591.97;5036767;28;20052;-71
2022/12/24 03:21:16;;;;;;;18.38;12.10;;;17.20;70.70;;;18.71;38.56;97587.63;5019080;28;20048;-71
2022/12/24 03:23:43;;;;;;;15.05;12.05;;;17.20;71.00;;;18.70;38.27;97601.72;5053776;28;20037;-71
2022/12/24 03:26:10;;;;;;;17.58;12.52;;;17.20;71.20;;;18.73;38.19;97604.56;5022380;28;20028;-71
2022/12/24 03:28:38;;;;;;;17.48;11.93;;;17.20;70.70;;;18.71;38.15;97606.84;5039856;28;20045;-71
2022/12/24 03:31:04;;;;;;;17.33;12.57;;;17.30;70.60;;;18.74;38.09;97592.41;5034311;28;20045;-71
2022/12/24 03:33:31;;;;;;;15.75;10.93;;;17.30;70.40;;;18.72;37.96;97602.16;5037696;28;20170;-71
2022/12/24 03:35:56;;;;;;;15.65;11.00;;;17.30;70.30;;;18.75;38.45;97616.03;5027558;28;20201;-70
2022/12/24 03:38:23;;;;;;;16.40;12.52;;;17.30;70.80;;;18.74;38.57;97616.34;5038084;28;20059;-70
2022/12/24 03:40:49;;;;;;;16.75;11.90;;;17.20;71.10;;;18.71;38.42;97612.34;5072695;28;20040;-70
2022/12/24 03:43:15;;;;;;;16.08;12.13;;;17.30;70.90;;;18.73;38.27;97612.78;5068665;28;20056;-71
2022/12/24 03:45:41;;;;;;;19.15;13.02;;;17.30;70.60;;;18.70;38.11;97616.25;5054418;28;20044;-71
2022/12/24 03:48:07;;;;;;;19.55;13.27;;;17.30;70.50;;;18.74;38.23;97619.88;5053873;28;20109;-70
2022/12/24 03:50:33;;;;;;;22.20;12.98;;;17.30;70.40;;;18.72;38.30;97627.66;5073518;28;20048;-70
2022/12/24 03:52:59;;;;;;;16.67;12.50;;;17.30;70.50;;;18.71;38.25;97626.09;5069458;28;20041;-70
2022/12/24 03:55:25;;;;;;;16.58;11.85;;;17.30;70.70;;;18.75;38.43;97620.66;5037907;28;20751;-70
2022/12/24 03:57:51;;;;;;;16.95;11.65;;;17.30;70.90;;;18.74;38.20;97630.06;5055914;28;20045;-71
2022/12/24 04:00:18;;;;;;;16.80;11.30;;;17.40;70.50;;;18.78;38.00;97625.50;5033954;28;20051;-71
2022/12/24 04:02:44;;;;;;;18.15;12.55;;;17.40;69.90;;;18.76;37.76;97625.06;5067726;28;20068;-70
2022/12/24 04:05:16;;;;;;;15.82;12.27;;;17.50;69.80;;;18.71;37.82;97628.84;5039575;28;20456;-71
2022/12/24 04:07:42;;;;;;;18.88;13.07;;;17.50;69.70;;;18.69;38.08;97631.13;5057535;28;20127;-71
2022/12/24 04:10:09;;;;;;;18.30;13.23;;;17.40;69.90;;;18.70;38.22;97637.41;5022115;28;20083;-70
2022/12/24 04:12:35;;;;;;;16.63;11.40;;;17.30;70.40;;;18.72;38.31;97627.66;5070126;28;20446;-71
2022/12/24 04:15:02;;;;;;;19.15;13.23;;;17.20;70.70;;;18.70;38.22;97638.25;5073247;28;20051;-71
2022/12/24 04:17:28;;;;;;;20.05;13.73;;;17.40;69.90;;;18.69;38.02;97624.84;5038772;28;20048;-71
2022/12/24 04:19:54;;;;;;;18.75;13.90;;;17.50;69.90;;;18.71;37.67;97628.84;5072018;28;20422;-71
2022/12/24 04:22:20;;;;;;;19.20;13.18;;;17.50;69.60;;;18.68;37.57;97635.03;5021367;28;20043;-71
2022/12/24 04:24:46;;;;;;;15.98;12.48;;;17.50;69.50;;;18.71;38.09;97628.03;5056986;28;20498;-71
2022/12/24 04:27:16;;;;;;;15.82;13.15;;;17.40;69.90;;;18.73;37.95;97632.03;5039335;28;20032;-71
2022/12/24 04:29:42;;;;;;;16.83;13.00;;;17.30;70.30;;;18.71;38.00;97639.03;5052797;28;20464;-71
2022/12/24 04:32:09;;;;;;;16.38;13.27;;;17.30;70.10;;;18.70;38.05;97627.25;5028477;28;20048;-71
2022/12/24 04:34:35;;;;;;;21.23;14.35;;;17.30;69.80;;;18.66;37.91;97618.91;5056695;28;20448;-71
2022/12/24 04:37:02;;;;;;;20.25;14.10;;;17.40;69.80;;;18.69;37.62;97617.41;5052871;28;20044;-71
2022/12/24 04:39:28;;;;;;;19.90;13.25;;;17.50;69.40;;;18.69;37.68;97613.84;5065786;28;20048;-71
2022/12/24 04:41:54;;;;;;;17.90;13.07;;;17.40;69.40;;;18.68;37.93;97620.53;5069067;28;20382;-71
2022/12/24 04:44:20;;;;;;;20.10;13.95;;;17.30;69.70;;;18.69;38.17;97614.66;5073128;28;20077;-71
2022/12/24 04:46:46;;;;;;;18.75;13.45;;;17.30;70.40;;;18.69;37.82;97609.16;5071592;28;20044;-70
2022/12/24 04:49:12;;;;;;;21.20;13.73;;;17.30;69.80;;;18.71;37.85;97603.31;5068246;28;20040;-70
2022/12/24 04:51:38;;;;;;;22.50;14.05;;;17.30;69.60;;;18.66;37.60;97609.88;5070636;28;20104;-70
2022/12/24 04:54:04;;;;;;;19.48;14.00;;;17.40;69.40;;;18.64;37.59;97604.72;5036320;28;20475;-71
2022/12/24 04:56:31;;;;;;;20.98;13.88;;;17.40;69.00;;;18.67;37.80;97605.97;5069531;28;20041;-71
2022/12/24 04:59:00;;;;;;;17.45;13.35;;;17.40;69.70;;;18.70;37.85;97608.03;5038098;28;20076;-70
2022/12/24 05:01:29;;;;;;;19.10;14.65;;;17.30;69.80;;;18.68;37.88;97609.53;5037295;28;20044;-71
2022/12/24 05:03:55;;;;;;;19.73;14.90;;;17.30;70.10;;;18.65;37.66;97620.06;5038702;28;20050;-71
2022/12/24 05:06:25;;;;;;;16.58;12.90;;;17.40;69.60;;;18.64;37.59;97617.66;5055989;28;20058;-71
2022/12/24 05:08:55;;;;;;;20.20;14.52;;;17.50;69.10;;;18.64;37.59;97617.66;5039180;28;20082;-71
2022/12/24 05:11:22;;;;;;;21.20;13.95;;;17.50;68.80;;;18.68;37.34;97621.31;5031340;28;20554;-71
2022/12/24 05:13:48;;;;;;;22.15;14.45;;;17.40;68.80;;;18.70;37.69;97623.69;5053310;28;20048;-71
2022/12/24 05:16:16;;;;;;;18.63;13.55;;;17.30;69.50;;;18.67;37.92;97619.69;5040648;28;20047;-71
2022/12/24 05:18:42;;;;;;;17.15;13.40;;;17.20;69.70;;;18.68;37.52;97612.28;5027820;28;20045;-71
2022/12/24 05:21:14;;;;;;;19.63;14.05;;;17.20;69.70;;;18.62;37.60;97618.03;5073767;28;20454;-71
2022/12/24 05:26:34;;;;;;;18.85;13.27;;;17.40;69.00;;;18.58;37.49;97621.84;5056289;28;20028;-71
2022/12/24 05:29:00;;;;;;;16.80;13.15;;;17.40;68.70;;;18.60;37.74;97627.78;5038072;28;20041;-71
2022/12/24 05:31:28;;;;;;;18.05;12.80;;;17.40;69.20;;;18.64;37.83;97626.69;5049168;28;20504;-71
2022/12/24 05:33:54;;;;;;;18.17;13.80;;;17.30;69.70;;;18.64;37.79;97625.91;5021772;28;20053;-71
2022/12/24 05:36:20;;;;;;;21.13;13.70;;;17.30;69.80;;;18.63;37.65;97624.31;5052189;28;20682;-72
2022/12/24 05:38:46;;;;;;;15.45;12.00;;;17.40;69.30;;;18.61;37.55;97630.16;5051062;28;20040;-72
2022/12/24 05:41:13;;;;;;;18.98;12.63;;;17.40;68.70;;;18.56;37.35;97622.19;5066300;28;20043;-72
2022/12/24 05:43:39;;;;;;;14.65;12.32;;;17.50;68.60;;;18.57;37.28;97631.22;5054017;28;20070;-72
2022/12/24 05:46:08;;;;;;;15.65;11.30;;;17.40;68.50;;;18.63;37.50;97643.56;5031089;28;20041;-72
2022/12/24 05:48:34;;;;;;;14.45;11.35;;;17.40;69.20;;;18.65;37.79;97644.00;5048275;28;20040;-72
2022/12/24 05:51:05;;;;;;;15.57;11.57;;;17.30;69.60;;;18.63;37.71;97646.28;5035776;28;20530;-72
2022/12/24 05:53:31;;;;;;;16.80;12.00;;;17.30;69.50;;;18.63;37.85;97641.59;5041199;28;20044;-72
2022/12/24 05:56:12;;;;;;;16.20;11.20;;;17.30;69.50;;;18.60;37.46;97644.25;5002637;28;20375;-72
2022/12/24 05:58:39;;;;;;;16.77;11.73;;;17.30;69.50;;;18.58;37.57;97639.13;5049312;28;20044;-72
2022/12/24 06:01:05;;;;;;;17.25;12.30;;;17.30;69.40;;;18.62;37.34;97652.91;5050533;28;20122;-72
2022/12/24 06:03:32;;;;;;;17.23;10.95;;;17.30;69.40;;;18.59;38.03;97639.91;5048383;28;20052;-72
2022/12/24 06:06:09;;;;;;;14.52;10.38;;;17.30;69.80;;;18.66;37.86;97645.56;5017262;28;20187;-72
2022/12/24 06:08:35;;;;;;;15.77;10.73;;;17.20;69.70;;;18.62;37.89;97644.69;5049052;28;20158;-72
2022/12/24 06:11:03;;;;;;;18.33;11.52;;;17.30;69.80;;;18.58;37.83;97638.31;5051561;28;20094;-72
2022/12/24 06:13:29;;;;;;;14.18;10.27;;;17.30;69.60;;;18.65;37.91;97641.25;5035383;28;20044;-72
2022/12/24 06:15:56;;;;;;;16.00;10.75;;;17.30;69.60;;;18.58;38.02;97647.34;5051424;28;20051;-72
2022/12/24 06:18:23;;;;;;;17.40;11.18;;;17.30;69.60;;;18.62;38.14;97648.25;5052868;28;20086;-72
2022/12/24 06:20:51;;;;;;;15.40;11.63;;;17.20;70.50;;;18.64;37.88;97645.91;5014802;28;20039;-72
2022/12/24 06:23:17;;;;;;;19.05;11.77;;;17.20;70.10;;;18.62;37.95;97644.69;5053910;28;20536;-72
2022/12/24 06:25:43;;;;;;;14.70;10.35;;;17.20;70.30;;;18.57;38.10;97640.28;5049684;28;20052;-72
2022/12/24 06:28:09;;;;;;;14.18;10.27;;;17.30;69.80;;;18.59;37.84;97645.41;5021450;28;20401;-72
2022/12/24 06:30:35;;;;;;;17.02;11.38;;;17.30;69.70;;;18.64;37.81;97647.88;5052263;28;20040;-72
2022/12/24 06:33:01;;;;;;;15.02;10.60;;;17.30;69.70;;;18.65;37.76;97660.47;5067422;28;20042;-72
2022/12/24 06:35:28;;;;;;;13.05;9.90;;;17.30;69.70;;;18.64;37.87;97665.16;5054082;28;20044;-72
2022/12/24 06:37:54;;;;;;;15.90;10.18;;;17.30;69.80;;;18.64;38.05;97675.34;5049935;28;20052;-72
2022/12/24 06:40:20;;;;;;;12.48;10.23;;;17.30;70.10;;;18.59;37.97;97676.41;5064800;28;20456;-72
2022/12/24 06:42:46;;;;;;;13.40;9.90;;;17.30;70.00;;;18.58;38.06;97674.81;5069879;28;20047;-72
2022/12/24 06:45:12;;;;;;;15.60;9.85;;;17.30;69.80;;;18.58;38.01;97683.06;5050293;28;20120;-72
2022/12/24 06:47:38;;;;;;;12.07;10.10;;;17.30;69.80;;;18.59;37.92;97689.34;5071914;28;20512;-70
2022/12/24 06:50:06;;;;;;;16.40;10.85;;;17.40;69.70;;;18.58;37.96;97691.28;5034795;28;20040;-70
2022/12/24 06:52:31;;;;;;;13.45;9.63;;;17.30;69.60;;;18.57;38.27;97692.47;5066102;28;20546;-70
2022/12/24 06:54:58;;;;;;;13.13;9.63;;;17.20;69.90;;;18.54;38.15;97700.59;5053879;28;20044;-70
2022/12/24 06:57:24;;;;;;;12.52;9.48;;;17.20;70.20;;;18.53;38.24;97699.00;5034521;28;20056;-70
2022/12/24 06:59:50;;;;;;;13.05;9.45;;;17.20;70.00;;;18.60;38.10;97697.22;5073444;28;20049;-70
2022/12/24 07:02:16;;;;;;;12.90;9.38;;;17.30;69.80;;;18.58;38.01;97709.72;5071850;28;20051;-70
2022/12/24 07:04:42;;;;;;;14.18;9.75;;;17.30;69.70;;;18.61;37.81;97715.28;5036521;28;20098;-70
2022/12/24 07:07:08;;;;;;;11.43;9.15;;;17.30;69.80;;;18.55;38.28;97704.94;5055856;28;20490;-70
2022/12/24 07:09:34;;;;;;;19.45;9.00;;;17.30;69.80;;;18.58;38.17;97716.00;5054447;28;20481;-70
2022/12/24 07:12:00;;;;;;;12.13;8.93;;;17.30;70.10;;;18.57;38.41;97716.34;5056302;28;20047;-70
2022/12/24 07:14:26;;;;;;;13.65;9.65;;;17.30;70.40;;;18.56;38.03;97709.28;5057268;28;20112;-70
2022/12/24 07:16:52;;;;;;;13.80;9.65;;;17.30;69.80;;;18.56;37.96;97712.81;5054222;28;20045;-70
2022/12/24 07:19:18;;;;;;;9.70;8.30;;;17.20;69.60;;;18.58;37.87;97723.47;5057542;28;20054;-70
2022/12/24 07:21:44;;;;;;;12.25;8.73;;;17.30;69.80;;;18.61;38.02;97715.28;5036874;28;20040;-71
2022/12/24 07:24:13;;;;;;;11.10;8.95;;;17.30;69.80;;;18.59;38.22;97727.78;5075554;28;20434;-71
2022/12/24 07:26:39;;;;;;;11.77;8.38;;;17.30;69.80;;;18.64;38.34;97735.75;5056983;28;20044;-70
2022/12/24 07:29:05;;;;;;;11.32;8.88;;;17.30;70.30;;;18.63;38.22;97726.72;5023932;28;20046;-70
2022/12/24 07:31:31;;;;;;;12.63;8.40;;;17.20;70.40;;;18.57;38.03;97725.41;5071743;28;20411;-70
2022/12/24 07:33:57;;;;;;;9.93;7.68;;;17.20;70.20;;;18.57;38.03;97719.09;5068250;28;20048;-70
2022/12/24 07:36:23;;;;;;;14.70;9.05;;;17.20;69.80;;;18.59;37.99;97716.81;5055694;28;20066;-70
2022/12/24 07:38:51;;;;;;;12.20;8.13;;;17.30;69.80;;;18.57;38.10;97730.09;5067615;28;20051;-70
2022/12/24 07:41:17;;;;;;;9.55;7.95;;;17.20;69.90;;;18.59;38.24;97730.53;5069257;28;20040;-70
2022/12/24 07:43:43;;;;;;;13.02;8.07;;;17.20;70.50;;;18.63;38.35;97734.19;5069146;28;20404;-70
2022/12/24 07:46:09;;;;;;;8.85;7.82;;;17.20;70.70;;;18.61;38.14;97733.72;5048910;28;20261;-70
2022/12/24 07:48:35;;;;;;;11.00;7.45;;;17.20;70.30;;;18.60;38.14;97730.19;5052380;28;20430;-70
2022/12/24 07:51:01;;;;;;;9.88;7.72;;;17.20;70.20;;;18.64;37.55;97735.75;5070384;28;20066;-70
2022/12/24 07:53:28;;;;;;;11.77;8.27;;;17.20;70.10;;;18.63;38.05;97742.41;5019149;28;20103;-71
2022/12/24 07:55:54;;;;;;;12.30;8.35;;;17.30;70.00;;;18.68;38.04;97749.59;5021455;28;20048;-70
2022/12/24 07:58:21;;;;;;;11.82;8.13;;;17.30;70.30;;;18.68;38.28;97747.66;5051642;28;20044;-70
2022/12/24 08:00:47;;;;;;;11.80;7.78;;;17.20;70.30;;;18.63;38.28;97756.16;5052481;28;20448;-70
2022/12/24 08:03:17;;;;;;;9.85;7.38;;;17.20;70.60;;;18.65;37.94;97751.91;5038477;28;20045;-70
2022/12/24 08:05:43;;;;;;;9.68;7.88;;;17.30;70.20;;;18.58;37.96;97756.41;5018746;28;20091;-70
2022/12/24 08:08:10;;;;;;;13.05;8.15;;;17.30;70.00;;;18.65;37.90;97760.16;5020823;28;20057;-70
2022/12/24 08:10:41;;;;;;;11.43;8.23;;;17.30;69.80;;;18.64;37.92;97765.97;5049072;28;20411;-70
2022/12/24 08:13:07;;;;;;;8.35;7.03;;;17.30;69.80;;;18.70;38.01;97763.75;5050050;28;20051;-71
2022/12/24 08:15:33;;;;;;;10.43;6.93;;;17.30;70.20;;;18.76;38.04;97768.69;5019320;28;20125;-70
2022/12/24 08:17:59;;;;;;;9.68;7.22;;;17.30;70.60;;;18.71;37.92;97777.16;5049977;28;20450;-70
2022/12/24 08:20:25;;;;;;;9.45;7.90;;;17.30;70.30;;;18.73;38.02;97760.34;5068586;28;20127;-70
2022/12/24 08:22:52;;;;;;;8.05;6.30;;;17.40;69.90;;;18.74;37.77;97770.16;5034992;28;20049;-70
2022/12/24 08:25:19;;;;;;;9.55;6.97;;;17.40;69.90;;;18.77;37.68;97777.72;5053596;28;20392;-70
2022/12/24 08:27:45;;;;;;;12.50;6.85;;;17.40;69.90;;;18.78;37.93;97782.88;5017791;28;20048;-70
2022/12/24 08:30:12;;;;;;;8.43;6.10;;;17.40;69.90;;;18.76;38.11;97781.63;5050457;28;20044;-70
2022/12/24 08:32:39;;;;;;;12.80;6.80;;;17.40;69.90;;;18.76;38.15;97778.88;5049045;28;20088;-70
2022/12/24 08:35:05;;;;;;;9.88;7.28;;;17.40;70.20;;;18.75;37.96;97780.84;5036232;28;20472;-71
2022/12/24 08:37:31;;;;;;;9.32;7.10;;;17.40;70.00;;;18.81;38.00;97784.13;5066305;28;20530;-70
2022/12/24 08:39:57;;;;;;;9.35;6.82;;;17.40;69.90;;;18.83;37.82;97790.88;5034561;28;20044;-70
2022/12/24 08:42:23;;;;;;;6.93;5.93;;;17.50;70.00;;;18.83;37.55;97790.06;5059464;28;20514;-70
2022/12/24 08:44:49;;;;;;;8.20;6.13;;;17.50;69.70;;;18.83;38.09;97793.59;5050005;28;20040;-70
2022/12/24 08:47:15;;;;;;;11.45;7.28;;;17.60;70.10;;;18.81;38.23;97786.88;5030203;28;20502;-70
2022/12/24 08:49:41;;;;;;;13.13;6.80;;;17.60;70.10;;;18.83;38.18;97788.13;5065918;28;20032;-70
2022/12/24 08:52:07;;;;;;;10.18;6.53;;;17.60;70.10;;;18.84;37.88;97786.94;5068067;28;20045;-70
2022/12/24 08:54:33;;;;;;;9.65;6.68;;;17.60;70.10;;;18.84;37.95;97789.69;5051131;28;20060;-70
2022/12/24 08:57:00;;;;;;;9.43;6.25;;;17.60;70.00;;;18.87;37.86;97799.97;5052077;28;20036;-70
2022/12/24 08:59:25;;;;;;;8.63;5.93;;;17.60;69.80;;;18.87;37.82;97804.69;5066590;28;20407;-70
2022/12/24 09:01:52;;;;;;;8.18;6.35;;;17.60;69.60;;;18.90;37.96;97814.16;5053811;28;20192;-70
2022/12/24 09:04:19;;;;;;;7.82;6.20;;;17.60;70.00;;;18.84;38.02;97811.69;5044268;28;20513;-70
2022/12/24 09:06:45;;;;;;;6.72;5.68;;;17.60;70.10;;;18.83;38.00;97812.03;5075272;28;20056;-70
2022/12/24 09:09:14;;;;;;;7.10;6.05;;;17.60;70.00;;;18.85;37.96;97804.22;5040749;28;20070;-70
2022/12/24 09:11:40;;;;;;;8.00;5.97;;;17.60;69.70;;;18.87;37.82;97808.22;5043992;28;20552;-70
2022/12/24 09:14:06;;;;;;;6.90;5.82;;;17.60;69.70;;;18.88;37.80;97809.03;5044292;28;20053;-70
2022/12/24 09:16:32;;;;;;;10.60;6.18;;;17.60;69.60;;;18.90;37.94;97814.16;5054490;28;20044;-70
2022/12/24 09:18:58;;;;;;;6.03;4.85;;;17.70;69.50;;;18.89;37.96;97809.84;5031206;28;20164;-70
2022/12/24 09:21:24;;;;;;;8.32;5.68;;;17.70;69.60;;;18.87;37.97;97816.47;5046304;28;20040;-70
2022/12/24 09:23:53;;;;;;;6.03;5.43;;;17.70;69.60;;;18.86;37.77;97809.38;5052290;28;20118;-71
2022/12/24 09:26:24;;;;;;;6.32;5.57;;;17.80;69.50;;;18.87;37.69;97812.91;5065729;28;20044;-71
2022/12/24 09:28:56;;;;;;;7.72;5.85;;;17.80;69.30;;;18.89;37.76;97820.81;5034521;28;20051;-70
2022/12/24 09:31:22;;;;;;;;;;;17.80;69.10;;;18.83;37.72;97820.28;5061066;28;20044;-70
2022/12/24 09:33:48;;;;;;;8.85;6.80;;;17.90;69.00;;;18.91;37.79;97822.06;5044123;28;19927;-70
2022/12/24 09:36:18;;;;;;;7.20;5.00;;;17.80;69.40;;;18.92;37.70;97823.66;5029482;28;20040;-70
2022/12/24 09:38:44;;;;;;;8.20;5.25;;;17.80;69.50;;;18.86;37.95;97834.09;5032504;28;20590;-71
2022/12/24 09:41:57;;;;;;;7.78;5.40;;;17.70;69.60;;;18.84;37.98;97828.16;5036663;28;20045;-71
2022/12/24 09:44:30;;;;;;;6.93;4.97;;;17.80;69.50;;;18.91;37.54;97827.56;5034704;28;20420;-71
2022/12/24 09:46:56;;;;;;;6.15;4.60;;;17.80;69.10;;;18.90;37.60;97830.66;5054322;28;20510;-71
2022/12/24 09:49:26;;;;;;;5.95;4.15;;;17.80;69.00;;;18.85;37.71;97834.44;5036962;28;20052;-71
2022/12/24 09:52:00;;;;;;;8.80;4.20;;;17.80;69.00;;;18.79;37.67;97835.88;5066702;28;20097;-70
2022/12/24 09:55:07;;;;;;;6.00;3.85;;;17.80;68.90;;;18.79;37.63;97841.38;5004028;28;20071;-70
2022/12/24 09:57:37;;;;;;;7.80;4.45;;;17.80;69.00;;;18.80;37.70;97851.19;5035121;28;20064;-70
2022/12/24 10:00:08;;;;;;;8.20;4.30;;;17.80;68.80;;;18.75;37.91;97849.53;5019081;28;20488;-70
2022/12/24 10:02:34;;;;;;;4.13;3.78;;;17.70;69.30;;;18.76;37.74;97853.84;5022864;28;20048;-70
2022/12/24 10:05:00;;;;;;;4.30;3.08;;;17.80;69.10;;;18.76;37.83;97853.06;5052874;28;20526;-70
2022/12/24 10:07:57;;;;;;;5.72;3.78;;;17.80;68.90;;;18.71;37.79;97861.53;5000051;28;20052;-70
2022/12/24 10:10:45;;;;;;;4.85;3.83;;;17.80;68.80;;;18.72;37.93;97865.84;5053138;28;20124;-70
2022/12/24 10:13:38;;;;;;;4.35;3.30;;;17.70;68.80;;;18.64;38.11;97870.34;5053175;28;20139;-70
2022/12/24 10:16:45;;;;;;;4.32;3.38;;;17.70;69.00;;;18.68;37.84;97867.72;5032816;28;20051;-70
2022/12/24 10:20:01;;;;;;;5.65;3.28;;;17.70;69.00;;;18.57;38.07;97873.72;5046567;28;20547;-70
2022/12/24 10:22:55;;;;;;;8.07;3.42;;;17.70;69.00;;;18.57;38.09;97873.72;5031429;28;20139;-71
2022/12/24 10:25:43;;;;;;;4.53;3.67;;;17.70;69.00;;;18.58;38.07;97864.31;5051355;28;20048;-71
2022/12/24 10:28:22;;;;;;;6.55;2.80;;;17.70;69.00;;;18.59;38.04;97865.09;5039840;28;20044;-71